createdAt,value
2018-12-06T00:00:13.911Z,6.84
2018-12-06T00:01:13.588Z,6.82
2018-12-06T00:02:13.525Z,6.82
2018-12-06T00:03:13.535Z,6.82
2018-12-06T00:04:13.607Z,6.81
2018-12-06T00:05:13.501Z,6.78
2018-12-06T00:06:13.585Z,6.8
2018-12-06T00:07:13.490Z,6.77
2018-12-06T00:08:14.405Z,6.77
2018-12-06T00:09:13.637Z,6.76
2018-12-06T00:10:13.609Z,6.77
2018-12-06T00:11:13.522Z,6.78
2018-12-06T00:12:13.742Z,6.75
2018-12-06T00:13:13.556Z,6.78
2018-12-06T00:14:13.556Z,6.78
2018-12-06T00:15:13.481Z,6.78
2018-12-06T00:16:13.893Z,6.79
2018-12-06T00:17:13.592Z,6.82
2018-12-06T00:18:13.743Z,6.85
2018-12-06T00:19:13.614Z,6.85
2018-12-06T00:20:13.753Z,6.88
2018-12-06T00:21:13.733Z,6.88
2018-12-06T00:22:13.890Z,6.88
2018-12-06T00:23:13.579Z,6.87
2018-12-06T00:24:13.720Z,6.9
2018-12-06T00:25:13.518Z,6.92
2018-12-06T00:26:13.664Z,6.94
2018-12-06T00:27:13.669Z,6.92
2018-12-06T00:28:13.526Z,6.96
2018-12-06T00:29:13.620Z,6.95
2018-12-06T00:30:13.544Z,6.93
2018-12-06T00:31:13.640Z,6.91
2018-12-06T00:32:13.632Z,6.93
2018-12-06T00:33:13.592Z,6.92
2018-12-06T00:34:13.717Z,6.94
2018-12-06T00:35:13.471Z,6.93
2018-12-06T00:36:13.728Z,6.91
2018-12-06T00:37:13.743Z,6.93
2018-12-06T00:38:13.501Z,6.91
2018-12-06T00:39:13.492Z,6.92
2018-12-06T00:40:13.456Z,6.91
2018-12-06T00:41:13.469Z,6.93
2018-12-06T00:42:13.451Z,6.9
2018-12-06T00:43:13.469Z,6.89
2018-12-06T00:44:13.511Z,6.85
2018-12-06T00:45:13.532Z,6.86
2018-12-06T00:46:13.452Z,6.85
2018-12-06T00:47:13.457Z,6.85
2018-12-06T00:48:13.478Z,6.83
2018-12-06T00:49:13.769Z,6.84
2018-12-06T00:50:13.504Z,6.82
2018-12-06T00:51:13.494Z,6.82
2018-12-06T00:52:13.735Z,6.82
2018-12-06T00:53:13.474Z,6.82
2018-12-06T00:54:13.493Z,6.83
2018-12-06T00:55:13.616Z,6.82
2018-12-06T00:56:13.478Z,6.82
2018-12-06T00:57:13.964Z,6.82
2018-12-06T00:58:13.471Z,6.77
2018-12-06T00:59:13.453Z,6.79
2018-12-06T01:00:13.957Z,6.8
2018-12-06T01:01:14.099Z,6.77
2018-12-06T01:02:13.636Z,6.77
2018-12-06T01:03:14.259Z,6.76
2018-12-06T01:04:13.431Z,6.76
2018-12-06T01:05:13.731Z,6.77
2018-12-06T01:06:13.490Z,6.74
2018-12-06T01:07:13.536Z,6.75
2018-12-06T01:08:13.730Z,6.78
2018-12-06T01:09:13.481Z,6.78
2018-12-06T01:10:13.535Z,6.78
2018-12-06T01:11:13.648Z,6.81
2018-12-06T01:12:13.534Z,6.81
2018-12-06T01:13:13.623Z,6.8
2018-12-06T01:14:13.742Z,6.82
2018-12-06T01:15:13.830Z,6.82
2018-12-06T01:16:13.688Z,6.85
2018-12-06T01:17:13.453Z,6.82
2018-12-06T01:18:13.649Z,6.82
2018-12-06T01:19:13.480Z,6.83
2018-12-06T01:20:13.495Z,6.82
2018-12-06T01:21:14.006Z,6.83
2018-12-06T01:22:13.417Z,6.83
2018-12-06T01:23:13.588Z,6.82
2018-12-06T01:24:13.497Z,6.83
2018-12-06T01:25:13.518Z,6.82
2018-12-06T01:26:13.568Z,6.85
2018-12-06T01:27:13.574Z,6.83
2018-12-06T01:28:13.497Z,6.84
2018-12-06T01:29:13.517Z,6.87
2018-12-06T01:30:13.694Z,6.84
2018-12-06T01:31:13.791Z,6.87
2018-12-06T01:32:13.442Z,6.88
2018-12-06T01:33:13.443Z,6.89
2018-12-06T01:34:13.377Z,6.88
2018-12-06T01:35:13.417Z,6.89
2018-12-06T01:36:13.559Z,6.88
2018-12-06T01:37:13.448Z,6.86
2018-12-06T01:38:13.427Z,6.86
2018-12-06T01:39:13.649Z,6.88
2018-12-06T01:40:13.404Z,6.87
2018-12-06T01:41:13.689Z,6.86
2018-12-06T01:42:13.517Z,6.88
2018-12-06T01:43:13.436Z,6.85
2018-12-06T01:44:13.529Z,6.86
2018-12-06T01:45:13.693Z,6.85
2018-12-06T01:46:13.432Z,6.86
2018-12-06T01:47:13.449Z,6.84
2018-12-06T01:48:13.406Z,6.84
2018-12-06T01:49:13.579Z,6.84
2018-12-06T01:50:13.365Z,6.85
2018-12-06T01:51:13.429Z,6.84
2018-12-06T01:52:13.532Z,6.84
2018-12-06T01:53:13.437Z,6.84
2018-12-06T01:54:13.501Z,6.83
2018-12-06T01:55:13.486Z,6.83
2018-12-06T01:56:13.444Z,6.8
2018-12-06T01:57:13.384Z,6.82
2018-12-06T01:58:13.415Z,6.8
2018-12-06T01:59:13.377Z,6.8
2018-12-06T02:00:13.653Z,6.8
2018-12-06T02:01:13.393Z,6.81
2018-12-06T02:02:13.435Z,6.79
2018-12-06T02:03:13.578Z,6.82
2018-12-06T02:04:13.479Z,6.82
2018-12-06T02:05:13.390Z,6.83
2018-12-06T02:06:13.431Z,6.83
2018-12-06T02:07:13.519Z,6.84
2018-12-06T02:08:13.324Z,6.85
2018-12-06T02:09:13.471Z,6.85
2018-12-06T02:10:13.442Z,6.84
2018-12-06T02:11:13.384Z,6.83
2018-12-06T02:12:13.350Z,6.87
2018-12-06T02:13:13.362Z,6.85
2018-12-06T02:14:13.333Z,6.87
2018-12-06T02:15:13.334Z,6.84
2018-12-06T02:16:13.347Z,6.88
2018-12-06T02:17:13.388Z,6.87
2018-12-06T02:18:13.342Z,6.83
2018-12-06T02:19:13.398Z,6.85
2018-12-06T02:20:13.323Z,6.85
2018-12-06T02:21:13.405Z,6.88
2018-12-06T02:22:13.338Z,6.88
2018-12-06T02:23:13.330Z,6.9
2018-12-06T02:24:13.384Z,6.9
2018-12-06T02:25:13.340Z,6.92
2018-12-06T02:26:13.384Z,6.89
2018-12-06T02:27:13.312Z,6.88
2018-12-06T02:28:13.503Z,6.87
2018-12-06T02:29:13.315Z,6.88
2018-12-06T02:30:13.329Z,6.88
2018-12-06T02:31:13.384Z,6.86
2018-12-06T02:32:13.475Z,6.89
2018-12-06T02:33:13.365Z,6.9
2018-12-06T02:34:13.793Z,6.9
2018-12-06T02:35:13.689Z,6.9
2018-12-06T02:36:13.521Z,6.92
2018-12-06T02:37:13.426Z,6.91
2018-12-06T02:38:13.846Z,6.93
2018-12-06T02:39:13.491Z,6.9
2018-12-06T02:40:13.350Z,6.88
2018-12-06T02:41:13.568Z,6.88
2018-12-06T02:42:13.389Z,6.88
2018-12-06T02:43:13.358Z,6.88
2018-12-06T02:44:13.404Z,6.89
2018-12-06T02:45:13.536Z,6.89
2018-12-06T02:46:13.484Z,6.9
2018-12-06T02:47:13.284Z,6.9
2018-12-06T02:48:13.392Z,6.88
2018-12-06T02:49:13.415Z,6.88
2018-12-06T02:50:13.317Z,6.87
2018-12-06T02:51:13.475Z,6.87
2018-12-06T02:52:13.385Z,6.84
2018-12-06T02:53:13.431Z,6.86
2018-12-06T02:54:13.413Z,6.83
2018-12-06T02:55:13.447Z,6.84
2018-12-06T02:56:13.385Z,6.83
2018-12-06T02:57:13.298Z,6.82
2018-12-06T02:58:13.292Z,6.82
2018-12-06T02:59:13.380Z,6.83
2018-12-06T03:00:13.460Z,6.82
2018-12-06T03:01:13.471Z,6.81
2018-12-06T03:02:13.457Z,6.82
2018-12-06T03:03:13.635Z,6.82
2018-12-06T03:04:13.442Z,6.83
2018-12-06T03:05:13.283Z,6.82
2018-12-06T03:06:13.293Z,6.82
2018-12-06T03:07:13.454Z,6.79
2018-12-06T03:08:13.423Z,6.79
2018-12-06T03:09:13.506Z,6.81
2018-12-06T03:10:13.343Z,6.8
2018-12-06T03:11:13.543Z,6.83
2018-12-06T03:12:13.288Z,6.83
2018-12-06T03:13:13.369Z,6.81
2018-12-06T03:14:13.434Z,6.8
2018-12-06T03:15:13.433Z,6.84
2018-12-06T03:16:13.494Z,6.84
2018-12-06T03:17:13.356Z,6.82
2018-12-06T03:18:13.343Z,6.79
2018-12-06T03:19:13.297Z,6.81
2018-12-06T03:20:13.452Z,6.79
2018-12-06T03:21:13.338Z,6.77
2018-12-06T03:22:13.408Z,6.77
2018-12-06T03:23:13.401Z,6.75
2018-12-06T03:24:13.297Z,6.76
2018-12-06T03:25:13.324Z,6.75
2018-12-06T03:26:13.829Z,6.77
2018-12-06T03:27:13.586Z,6.78
2018-12-06T03:28:13.449Z,6.75
2018-12-06T03:29:13.288Z,6.74
2018-12-06T03:30:13.364Z,6.76
2018-12-06T03:31:13.537Z,6.74
2018-12-06T03:32:13.425Z,6.76
2018-12-06T03:33:13.373Z,6.76
2018-12-06T03:34:13.561Z,6.76
2018-12-06T03:35:13.606Z,6.76
2018-12-06T03:36:13.378Z,6.74
2018-12-06T03:37:13.305Z,6.74
2018-12-06T03:38:13.279Z,6.72
2018-12-06T03:39:13.452Z,6.74
2018-12-06T03:40:13.239Z,6.74
2018-12-06T03:41:13.400Z,6.77
2018-12-06T03:42:13.316Z,6.77
2018-12-06T03:43:13.599Z,6.78
2018-12-06T03:44:13.356Z,6.77
2018-12-06T03:45:13.310Z,6.77
2018-12-06T03:46:13.280Z,6.78
2018-12-06T03:47:13.590Z,6.77
2018-12-06T03:48:14.083Z,6.78
2018-12-06T03:49:13.237Z,6.77
2018-12-06T03:50:13.393Z,6.78
2018-12-06T03:51:13.376Z,6.76
2018-12-06T03:52:13.345Z,6.76
2018-12-06T03:53:13.286Z,6.78
2018-12-06T03:54:13.312Z,6.78
2018-12-06T03:55:13.248Z,6.78
2018-12-06T03:56:13.267Z,6.81
2018-12-06T03:57:13.274Z,6.78
2018-12-06T03:58:13.317Z,6.78
2018-12-06T03:59:13.264Z,6.78
2018-12-06T04:00:13.302Z,6.79
2018-12-06T04:01:13.269Z,6.82
2018-12-06T04:02:13.247Z,6.8
2018-12-06T04:03:13.212Z,6.82
2018-12-06T04:04:13.261Z,6.8
2018-12-06T04:05:13.408Z,6.82
2018-12-06T04:06:13.185Z,6.83
2018-12-06T04:07:13.208Z,6.84
2018-12-06T04:08:13.223Z,6.84
2018-12-06T04:09:13.565Z,6.85
2018-12-06T04:10:13.260Z,6.85
2018-12-06T04:11:13.286Z,6.87
2018-12-06T04:12:13.225Z,6.87
2018-12-06T04:13:13.760Z,6.86
2018-12-06T04:14:13.398Z,6.88
2018-12-06T04:15:13.321Z,6.88
2018-12-06T04:16:13.596Z,6.88
2018-12-06T04:17:13.244Z,6.86
2018-12-06T04:18:13.361Z,6.88
2018-12-06T04:19:13.570Z,6.86
2018-12-06T04:20:13.505Z,6.88
2018-12-06T04:21:13.398Z,6.88
2018-12-06T04:22:13.278Z,6.88
2018-12-06T04:23:13.420Z,6.88
2018-12-06T04:24:14.035Z,6.88
2018-12-06T04:25:13.260Z,6.88
2018-12-06T04:26:13.580Z,6.88
2018-12-06T04:27:13.295Z,6.88
2018-12-06T04:28:13.305Z,6.88
2018-12-06T04:29:13.366Z,6.89
2018-12-06T04:30:13.428Z,6.87
2018-12-06T04:31:13.163Z,6.89
2018-12-06T04:32:13.252Z,6.89
2018-12-06T04:33:13.787Z,6.92
2018-12-06T04:34:13.492Z,6.9
2018-12-06T04:35:13.339Z,6.89
2018-12-06T04:36:13.308Z,6.9
2018-12-06T04:37:13.322Z,6.89
2018-12-06T04:38:13.740Z,6.89
2018-12-06T04:39:13.478Z,6.91
2018-12-06T04:40:13.884Z,6.88
2018-12-06T04:41:13.539Z,6.9
2018-12-06T04:42:13.369Z,6.9
2018-12-06T04:43:13.516Z,6.9
2018-12-06T04:44:13.126Z,6.91
2018-12-06T04:45:13.160Z,6.9
2018-12-06T04:46:13.227Z,6.93
2018-12-06T04:47:14.619Z,6.9
2018-12-06T04:48:22.623Z,6.93
2018-12-06T04:49:13.169Z,6.92
2018-12-06T04:50:13.277Z,6.94
2018-12-06T04:51:13.388Z,6.91
2018-12-06T04:52:13.391Z,6.94
2018-12-06T04:53:13.233Z,6.92
2018-12-06T04:54:13.290Z,6.94
2018-12-06T04:55:13.170Z,6.93
2018-12-06T04:56:13.169Z,6.96
2018-12-06T04:57:13.307Z,6.99
2018-12-06T04:58:13.370Z,6.99
2018-12-06T04:59:13.254Z,7.02
2018-12-06T05:00:13.448Z,7.01
2018-12-06T05:01:13.222Z,7.03
2018-12-06T05:02:13.210Z,7.02
2018-12-06T05:03:13.232Z,7.05
2018-12-06T05:04:13.277Z,7.03
2018-12-06T05:05:13.369Z,7.05
2018-12-06T05:06:13.151Z,7.06
2018-12-06T05:07:13.129Z,7.05
2018-12-06T05:08:13.168Z,7.08
2018-12-06T05:09:13.259Z,7.08
2018-12-06T05:10:13.130Z,7.08
2018-12-06T05:11:13.254Z,7.09
2018-12-06T05:12:13.937Z,7.08
2018-12-06T05:13:14.304Z,7.08
2018-12-06T05:14:13.192Z,7.08
2018-12-06T05:15:13.180Z,7.08
2018-12-06T05:16:13.444Z,7.12
2018-12-06T05:17:13.209Z,7.13
2018-12-06T05:18:13.114Z,7.11
2018-12-06T05:19:13.202Z,7.12
2018-12-06T05:20:13.488Z,7.12
2018-12-06T05:21:13.222Z,7.13
2018-12-06T05:22:13.158Z,7.14
2018-12-06T05:23:14.399Z,7.15
2018-12-06T05:24:13.277Z,7.16
2018-12-06T05:25:13.307Z,7.19
2018-12-06T05:26:13.122Z,7.21
2018-12-06T05:27:13.216Z,7.2
2018-12-06T05:28:13.290Z,7.2
2018-12-06T05:29:13.204Z,7.2
2018-12-06T05:30:13.182Z,7.24
2018-12-06T05:31:13.423Z,7.23
2018-12-06T05:32:13.254Z,7.24
2018-12-06T05:33:13.193Z,7.24
2018-12-06T05:34:13.278Z,7.24
2018-12-06T05:35:13.089Z,7.26
2018-12-06T05:36:13.132Z,7.26
2018-12-06T05:37:13.086Z,7.26
2018-12-06T05:38:13.209Z,7.25
2018-12-06T05:39:13.180Z,7.25
2018-12-06T05:40:13.210Z,7.25
2018-12-06T05:41:13.487Z,7.25
2018-12-06T05:42:13.173Z,7.26
2018-12-06T05:43:13.208Z,7.26
2018-12-06T05:44:13.098Z,7.25
2018-12-06T05:45:13.326Z,7.26
2018-12-06T05:46:13.201Z,7.26
2018-12-06T05:47:13.106Z,7.27
2018-12-06T05:48:13.198Z,7.27
2018-12-06T05:49:13.205Z,7.27
2018-12-06T05:50:13.180Z,7.27
2018-12-06T05:51:14.697Z,7.27
2018-12-06T05:52:13.090Z,7.27
2018-12-06T05:53:13.212Z,7.27
2018-12-06T05:54:13.155Z,7.27
2018-12-06T05:55:13.880Z,7.27
2018-12-06T05:56:13.135Z,7.3
2018-12-06T05:57:13.127Z,7.27
2018-12-06T05:58:13.183Z,7.27
2018-12-06T05:59:13.090Z,7.28
2018-12-06T06:00:13.165Z,7.28
2018-12-06T06:01:13.105Z,7.29
2018-12-06T06:02:13.282Z,7.29
2018-12-06T06:03:13.318Z,7.28
2018-12-06T06:04:13.125Z,7.3
2018-12-06T06:05:13.200Z,7.32
2018-12-06T06:06:13.463Z,7.31
2018-12-06T06:07:13.896Z,7.3
2018-12-06T06:08:13.051Z,7.31
2018-12-06T06:09:13.691Z,7.28
2018-12-06T06:10:13.279Z,7.29
2018-12-06T06:11:13.225Z,7.31
2018-12-06T06:12:13.432Z,7.31
2018-12-06T06:13:13.079Z,7.31
2018-12-06T06:14:13.205Z,7.29
2018-12-06T06:15:13.149Z,7.32
2018-12-06T06:16:13.234Z,7.32
2018-12-06T06:17:13.215Z,7.32
2018-12-06T06:18:13.142Z,7.3
2018-12-06T06:19:13.017Z,7.32
2018-12-06T06:20:13.157Z,7.33
2018-12-06T06:21:13.338Z,7.32
2018-12-06T06:22:13.172Z,7.32
2018-12-06T06:23:13.315Z,7.3
2018-12-06T06:24:13.051Z,7.32
2018-12-06T06:25:13.202Z,7.32
2018-12-06T06:26:13.236Z,7.31
2018-12-06T06:27:13.158Z,7.32
2018-12-06T06:28:13.287Z,7.32
2018-12-06T06:29:13.401Z,7.33
2018-12-06T06:30:13.250Z,7.33
2018-12-06T06:31:13.170Z,7.3
2018-12-06T06:32:13.012Z,7.33
2018-12-06T06:33:13.153Z,7.34
2018-12-06T06:34:13.185Z,7.33
2018-12-06T06:35:13.249Z,7.33
2018-12-06T06:36:13.479Z,7.32
2018-12-06T06:37:13.312Z,7.33
2018-12-06T06:38:13.284Z,7.33
2018-12-06T06:39:13.218Z,7.33
2018-12-06T06:40:13.266Z,7.31
2018-12-06T06:41:13.101Z,7.33
2018-12-06T06:42:13.213Z,7.33
2018-12-06T06:43:13.218Z,7.33
2018-12-06T06:44:13.212Z,7.33
2018-12-06T06:45:13.026Z,7.33
2018-12-06T06:46:13.237Z,7.33
2018-12-06T06:47:13.609Z,7.34
2018-12-06T06:48:13.223Z,7.34
2018-12-06T06:49:14.538Z,7.34
2018-12-06T06:50:13.202Z,7.36
2018-12-06T06:51:13.226Z,7.36
2018-12-06T06:52:13.222Z,7.37
2018-12-06T06:53:13.031Z,7.35
2018-12-06T06:54:13.318Z,7.37
2018-12-06T06:55:13.060Z,7.37
2018-12-06T06:56:13.171Z,7.38
2018-12-06T06:57:13.354Z,7.38
2018-12-06T06:58:13.244Z,7.39
2018-12-06T06:59:13.010Z,7.4
2018-12-06T07:00:12.995Z,7.4
2018-12-06T07:01:13.675Z,7.42
2018-12-06T07:02:12.977Z,7.43
2018-12-06T07:03:13.246Z,7.44
2018-12-06T07:04:13.087Z,7.46
2018-12-06T07:05:13.192Z,7.51
2018-12-06T07:06:13.495Z,7.52
2018-12-06T07:07:13.139Z,7.56
2018-12-06T07:08:12.999Z,7.6
2018-12-06T07:09:13.346Z,7.62
2018-12-06T07:10:13.279Z,7.65
2018-12-06T07:11:13.252Z,7.67
2018-12-06T07:12:13.126Z,7.7
2018-12-06T07:13:13.232Z,7.7
2018-12-06T07:14:13.039Z,7.73
2018-12-06T07:15:12.983Z,7.76
2018-12-06T07:16:13.151Z,7.78
2018-12-06T07:17:13.076Z,7.79
2018-12-06T07:18:13.010Z,7.82
2018-12-06T07:19:13.000Z,7.83
2018-12-06T07:20:13.007Z,7.83
2018-12-06T07:21:13.030Z,7.82
2018-12-06T07:22:12.968Z,7.82
2018-12-06T07:23:13.204Z,7.78
2018-12-06T07:24:13.391Z,7.78
2018-12-06T07:25:13.163Z,7.78
2018-12-06T07:26:13.036Z,7.75
2018-12-06T07:27:12.939Z,7.77
2018-12-06T07:28:13.151Z,7.75
2018-12-06T07:29:12.966Z,7.74
2018-12-06T07:30:13.114Z,7.75
2018-12-06T07:31:13.068Z,7.74
2018-12-06T07:32:12.940Z,7.74
2018-12-06T07:33:13.372Z,7.73
2018-12-06T07:34:13.334Z,7.74
2018-12-06T07:35:12.956Z,7.71
2018-12-06T07:36:12.945Z,7.73
2018-12-06T07:37:13.015Z,7.73
2018-12-06T07:38:13.222Z,7.71
2018-12-06T07:39:13.023Z,7.71
2018-12-06T07:40:13.018Z,7.72
2018-12-06T07:41:14.929Z,7.71
2018-12-06T07:42:13.126Z,7.72
2018-12-06T07:43:13.256Z,7.74
2018-12-06T07:44:12.923Z,7.73
2018-12-06T07:45:13.258Z,7.74
2018-12-06T07:46:13.161Z,7.74
2018-12-06T07:47:12.953Z,7.75
2018-12-06T07:48:13.788Z,7.75
2018-12-06T07:49:13.203Z,7.74
2018-12-06T07:50:13.163Z,7.77
2018-12-06T07:51:12.976Z,7.79
2018-12-06T07:52:13.165Z,7.79
2018-12-06T07:53:13.010Z,7.81
2018-12-06T07:54:14.358Z,7.81
2018-12-06T07:55:13.208Z,7.82
2018-12-06T07:56:13.143Z,7.82
2018-12-06T07:57:13.130Z,7.82
2018-12-06T07:58:13.091Z,7.81
2018-12-06T07:59:13.134Z,7.82
2018-12-06T08:00:13.400Z,7.81
2018-12-06T08:01:13.208Z,7.82
2018-12-06T08:02:13.151Z,7.82
2018-12-06T08:03:13.212Z,7.8
2018-12-06T08:04:13.078Z,7.82
2018-12-06T08:05:12.925Z,7.84
2018-12-06T08:06:13.119Z,7.83
2018-12-06T08:07:13.158Z,7.84
2018-12-06T08:08:13.741Z,7.83
2018-12-06T08:09:13.535Z,7.83
2018-12-06T08:10:16.275Z,7.83
2018-12-06T08:11:12.919Z,7.83
2018-12-06T08:12:13.165Z,7.83
2018-12-06T08:13:13.213Z,7.83
2018-12-06T08:14:13.068Z,7.84
2018-12-06T08:15:12.919Z,7.86
2018-12-06T08:16:13.112Z,7.85
2018-12-06T08:17:13.273Z,7.87
2018-12-06T08:18:13.336Z,7.86
2018-12-06T08:19:14.457Z,7.84
2018-12-06T08:20:12.900Z,7.85
2018-12-06T08:21:13.003Z,7.85
2018-12-06T08:22:12.943Z,7.87
2018-12-06T08:23:13.009Z,7.86
2018-12-06T08:24:13.127Z,7.88
2018-12-06T08:25:13.121Z,7.85
2018-12-06T08:26:12.971Z,7.88
2018-12-06T08:27:13.010Z,7.88
2018-12-06T08:28:13.103Z,7.9
2018-12-06T08:29:13.119Z,7.89
2018-12-06T08:30:13.066Z,7.9
2018-12-06T08:31:12.891Z,7.9
2018-12-06T08:32:12.937Z,7.91
2018-12-06T08:33:13.259Z,7.9
2018-12-06T08:34:13.017Z,7.91
2018-12-06T08:35:13.177Z,7.93
2018-12-06T08:36:12.934Z,7.93
2018-12-06T08:37:12.939Z,7.95
2018-12-06T08:38:13.005Z,7.94
2018-12-06T08:39:13.294Z,7.95
2018-12-06T08:40:12.962Z,7.96
2018-12-06T08:41:12.964Z,7.95
2018-12-06T08:42:13.058Z,7.95
2018-12-06T08:43:13.000Z,7.96
2018-12-06T08:44:13.416Z,7.95
2018-12-06T08:45:12.981Z,7.96
2018-12-06T08:46:13.137Z,7.95
2018-12-06T08:47:13.147Z,7.95
2018-12-06T08:48:13.018Z,7.96
2018-12-06T08:49:12.870Z,7.96
2018-12-06T08:50:12.886Z,8
2018-12-06T08:51:12.888Z,8.01
2018-12-06T08:52:13.021Z,8.03
2018-12-06T08:53:12.846Z,8.07
2018-12-06T08:54:13.004Z,8.09
2018-12-06T08:55:12.863Z,8.09
2018-12-06T08:56:12.851Z,8.13
2018-12-06T08:57:12.874Z,8.15
2018-12-06T08:58:12.886Z,8.15
2018-12-06T08:59:16.080Z,8.17
2018-12-06T09:00:12.945Z,8.18
2018-12-06T09:01:12.834Z,8.19
2018-12-06T09:02:13.079Z,8.21
2018-12-06T09:03:12.817Z,8.19
2018-12-06T09:04:12.826Z,8.23
2018-12-06T09:05:12.828Z,8.2
2018-12-06T09:06:12.925Z,8.2
2018-12-06T09:07:12.813Z,8.2
2018-12-06T09:08:12.909Z,8.22
2018-12-06T09:09:12.891Z,8.24
2018-12-06T09:10:12.897Z,8.24
2018-12-06T09:11:13.100Z,8.26
2018-12-06T09:12:12.850Z,8.25
2018-12-06T09:13:12.834Z,8.26
2018-12-06T09:14:12.814Z,8.28
2018-12-06T09:15:12.869Z,8.28
2018-12-06T09:16:12.955Z,8.28
2018-12-06T09:17:12.847Z,8.3
2018-12-06T09:18:13.346Z,8.31
2018-12-06T09:19:15.026Z,8.31
2018-12-06T09:20:13.021Z,8.31
2018-12-06T09:21:13.173Z,8.33
2018-12-06T09:22:12.918Z,8.33
2018-12-06T09:23:12.855Z,8.35
2018-12-06T09:24:13.139Z,8.37
2018-12-06T09:25:12.918Z,8.39
2018-12-06T09:26:13.050Z,8.42
2018-12-06T09:27:12.894Z,8.41
2018-12-06T09:28:13.006Z,8.44
2018-12-06T09:29:13.183Z,8.44
2018-12-06T09:30:12.947Z,8.48
2018-12-06T09:31:12.912Z,8.51
2018-12-06T09:32:12.801Z,8.52
2018-12-06T09:33:12.882Z,8.57
2018-12-06T09:34:12.804Z,8.57
2018-12-06T09:35:12.897Z,8.58
2018-12-06T09:36:12.875Z,8.61
2018-12-06T09:37:13.068Z,8.67
2018-12-06T09:38:12.817Z,8.66
2018-12-06T09:39:12.819Z,8.68
2018-12-06T09:40:13.018Z,8.72
2018-12-06T09:41:12.836Z,8.74
2018-12-06T09:42:13.014Z,8.76
2018-12-06T09:43:13.087Z,8.8
2018-12-06T09:44:12.842Z,8.77
2018-12-06T09:45:13.273Z,8.8
2018-12-06T09:46:12.924Z,8.82
2018-12-06T09:47:12.830Z,8.83
2018-12-06T09:48:12.936Z,8.86
2018-12-06T09:49:13.490Z,8.89
2018-12-06T09:50:12.960Z,8.9
2018-12-06T09:51:13.165Z,8.93
2018-12-06T09:52:13.274Z,8.94
2018-12-06T09:53:12.903Z,9
2018-12-06T09:54:12.993Z,9
2018-12-06T09:55:12.776Z,9.02
2018-12-06T09:56:12.888Z,9.07
2018-12-06T09:57:12.848Z,9.08
2018-12-06T09:58:12.870Z,9.05
2018-12-06T09:59:12.964Z,9.11
2018-12-06T10:00:13.113Z,9.11
2018-12-06T10:01:13.222Z,9.14
2018-12-06T10:02:12.817Z,9.13
2018-12-06T10:03:12.824Z,9.15
2018-12-06T10:04:13.308Z,9.16
2018-12-06T10:05:12.861Z,9.22
2018-12-06T10:06:13.184Z,9.22
2018-12-06T10:07:13.166Z,9.23
2018-12-06T10:08:13.221Z,9.31
2018-12-06T10:09:12.963Z,9.29
2018-12-06T10:10:13.995Z,9.31
2018-12-06T10:11:13.292Z,9.32
2018-12-06T10:12:12.919Z,9.34
2018-12-06T10:13:12.792Z,9.36
2018-12-06T10:14:12.904Z,9.38
2018-12-06T10:15:12.813Z,9.39
2018-12-06T10:16:12.848Z,9.42
2018-12-06T10:17:12.878Z,9.44
2018-12-06T10:18:13.634Z,9.48
2018-12-06T10:19:13.568Z,9.51
2018-12-06T10:20:12.860Z,9.48
2018-12-06T10:21:12.960Z,9.49
2018-12-06T10:22:12.951Z,9.48
2018-12-06T10:23:12.697Z,9.51
2018-12-06T10:24:12.742Z,9.51
2018-12-06T10:25:12.887Z,9.53
2018-12-06T10:26:12.882Z,9.51
2018-12-06T10:27:12.950Z,9.52
2018-12-06T10:28:12.875Z,9.53
2018-12-06T10:29:12.761Z,9.54
2018-12-06T10:30:12.801Z,9.56
2018-12-06T10:31:12.827Z,9.58
2018-12-06T10:32:12.775Z,9.58
2018-12-06T10:33:12.787Z,9.57
2018-12-06T10:34:12.918Z,9.57
2018-12-06T10:35:12.796Z,9.59
2018-12-06T10:36:12.720Z,9.6
2018-12-06T10:37:12.752Z,9.6
2018-12-06T10:38:12.772Z,9.6
2018-12-06T10:39:12.740Z,9.63
2018-12-06T10:40:13.125Z,9.67
2018-12-06T10:41:12.776Z,9.66
2018-12-06T10:42:12.761Z,9.67
2018-12-06T10:43:12.731Z,9.69
2018-12-06T10:44:12.794Z,9.71
2018-12-06T10:45:12.745Z,9.72
2018-12-06T10:46:12.779Z,9.74
2018-12-06T10:47:12.730Z,9.75
2018-12-06T10:48:12.841Z,9.82
2018-12-06T10:49:12.746Z,9.78
2018-12-06T10:50:12.742Z,9.79
2018-12-06T10:51:12.744Z,9.81
2018-12-06T10:52:12.828Z,9.84
2018-12-06T10:53:13.149Z,9.84
2018-12-06T10:54:12.745Z,9.82
2018-12-06T10:55:12.983Z,9.84
2018-12-06T10:56:12.799Z,9.88
2018-12-06T10:57:12.795Z,9.9
2018-12-06T10:58:12.763Z,9.89
2018-12-06T10:59:12.825Z,9.88
2018-12-06T11:00:12.862Z,9.88
2018-12-06T11:01:12.747Z,9.87
2018-12-06T11:02:12.838Z,9.88
2018-12-06T11:03:12.952Z,9.88
2018-12-06T11:04:12.981Z,9.89
2018-12-06T11:05:12.836Z,9.89
2018-12-06T11:06:12.722Z,9.89
2018-12-06T11:07:12.827Z,9.9
2018-12-06T11:08:12.700Z,9.9
2018-12-06T11:09:13.066Z,9.89
2018-12-06T11:10:12.881Z,9.9
2018-12-06T11:11:12.806Z,9.91
2018-12-06T11:12:12.724Z,9.91
2018-12-06T11:13:12.627Z,9.92
2018-12-06T11:14:13.215Z,9.93
2018-12-06T11:15:12.885Z,9.99
2018-12-06T11:16:12.775Z,9.97
2018-12-06T11:17:13.087Z,10
2018-12-06T11:18:12.758Z,9.98
2018-12-06T11:19:13.150Z,10.03
2018-12-06T11:20:13.004Z,10.04
2018-12-06T11:21:12.962Z,10.07
2018-12-06T11:22:12.940Z,10.07
2018-12-06T11:23:12.791Z,10.09
2018-12-06T11:24:12.721Z,10.11
2018-12-06T11:25:13.194Z,10.14
2018-12-06T11:26:12.791Z,10.12
2018-12-06T11:27:13.158Z,10.2
2018-12-06T11:28:12.837Z,10.2
2018-12-06T11:29:12.833Z,10.19
2018-12-06T11:30:12.837Z,10.16
2018-12-06T11:31:12.700Z,10.18
2018-12-06T11:32:12.942Z,10.18
2018-12-06T11:33:12.708Z,10.2
2018-12-06T11:34:13.083Z,10.21
2018-12-06T11:35:12.690Z,10.23
2018-12-06T11:36:12.849Z,10.21
2018-12-06T11:37:12.938Z,10.25
2018-12-06T11:38:12.842Z,10.25
2018-12-06T11:39:12.732Z,10.25
2018-12-06T11:40:12.654Z,10.24
2018-12-06T11:41:12.846Z,10.25
2018-12-06T11:42:12.890Z,10.26
2018-12-06T11:43:12.673Z,10.28
2018-12-06T11:44:12.922Z,10.3
2018-12-06T11:45:12.675Z,10.3
2018-12-06T11:46:12.690Z,10.32
2018-12-06T11:47:13.286Z,10.32
2018-12-06T11:48:12.815Z,10.32
2018-12-06T11:49:12.826Z,10.33
2018-12-06T11:50:12.702Z,10.32
2018-12-06T11:51:12.697Z,10.33
2018-12-06T11:52:12.977Z,10.33
2018-12-06T11:53:12.647Z,10.33
2018-12-06T11:54:12.678Z,10.32
2018-12-06T11:55:13.373Z,10.35
2018-12-06T11:56:12.732Z,10.33
2018-12-06T11:57:12.856Z,10.33
2018-12-06T11:58:12.835Z,10.37
2018-12-06T11:59:12.762Z,10.36
2018-12-06T12:00:12.777Z,10.41
2018-12-06T12:01:13.669Z,10.42
2018-12-06T12:02:12.752Z,10.44
2018-12-06T12:03:12.774Z,10.48
2018-12-06T12:04:12.967Z,10.51
2018-12-06T12:05:12.946Z,10.52
2018-12-06T12:06:13.618Z,10.55
2018-12-06T12:07:12.667Z,10.57
2018-12-06T12:08:12.881Z,10.59
2018-12-06T12:09:12.731Z,10.63
2018-12-06T12:10:12.817Z,10.64
2018-12-06T12:11:12.685Z,10.63
2018-12-06T12:12:13.106Z,10.63
2018-12-06T12:13:12.874Z,10.64
2018-12-06T12:14:12.650Z,10.63
2018-12-06T12:15:12.637Z,10.62
2018-12-06T12:16:12.628Z,10.64
2018-12-06T12:17:12.673Z,10.64
2018-12-06T12:18:12.670Z,10.65
2018-12-06T12:19:12.702Z,10.67
2018-12-06T12:20:12.589Z,10.7
2018-12-06T12:21:12.628Z,10.7
2018-12-06T12:22:12.656Z,10.7
2018-12-06T12:23:12.781Z,10.69
2018-12-06T12:24:12.602Z,10.7
2018-12-06T12:25:12.689Z,10.71
2018-12-06T12:26:12.806Z,10.72
2018-12-06T12:27:12.661Z,10.72
2018-12-06T12:28:12.623Z,10.71
2018-12-06T12:29:12.658Z,10.75
2018-12-06T12:30:12.599Z,10.74
2018-12-06T12:31:12.621Z,10.75
2018-12-06T12:32:12.682Z,10.76
2018-12-06T12:33:12.649Z,10.77
2018-12-06T12:34:12.652Z,10.81
2018-12-06T12:35:12.601Z,10.85
2018-12-06T12:36:12.725Z,10.86
2018-12-06T12:37:12.645Z,10.87
2018-12-06T12:38:12.603Z,10.86
2018-12-06T12:39:12.627Z,10.89
2018-12-06T12:40:12.649Z,10.89
2018-12-06T12:41:13.131Z,10.94
2018-12-06T12:42:12.918Z,10.95
2018-12-06T12:43:12.972Z,11
2018-12-06T12:44:13.086Z,11.03
2018-12-06T12:45:12.589Z,11.08
2018-12-06T12:46:12.855Z,11.12
2018-12-06T12:47:12.628Z,11.13
2018-12-06T12:48:12.749Z,11.18
2018-12-06T12:49:12.614Z,11.22
2018-12-06T12:50:13.405Z,11.26
2018-12-06T12:51:12.708Z,11.32
2018-12-06T12:52:12.734Z,11.38
2018-12-06T12:53:12.793Z,11.38
2018-12-06T12:54:12.901Z,11.36
2018-12-06T12:55:12.599Z,11.43
2018-12-06T12:56:12.763Z,11.45
2018-12-06T12:57:12.756Z,11.45
2018-12-06T12:58:12.950Z,11.4
2018-12-06T12:59:12.681Z,11.43
2018-12-06T13:00:12.993Z,11.43
2018-12-06T13:01:12.651Z,11.43
2018-12-06T13:02:12.630Z,11.45
2018-12-06T13:03:12.974Z,11.46
2018-12-06T13:04:12.586Z,11.47
2018-12-06T13:05:12.981Z,11.48
2018-12-06T13:06:12.613Z,11.55
2018-12-06T13:07:12.723Z,11.5
2018-12-06T13:08:12.710Z,11.48
2018-12-06T13:09:12.735Z,11.5
2018-12-06T13:10:12.859Z,11.49
2018-12-06T13:11:12.665Z,11.5
2018-12-06T13:12:12.689Z,11.5
2018-12-06T13:13:12.686Z,11.52
2018-12-06T13:14:12.579Z,11.51
2018-12-06T13:15:12.623Z,11.55
2018-12-06T13:16:12.544Z,11.54
2018-12-06T13:17:12.926Z,11.53